sensor_id;sensor_type;location;lat;lon;timestamp;P1;durP1;ratioP1;P2;durP2;ratioP2
33716;SDS011;20046;50.746;7.072;2024-03-25T00:02:09;18.65;;;4.05;;
33716;SDS011;20046;50.746;7.072;2024-03-25T00:04:35;22.60;;;4.53;;
33716;SDS011;20046;50.746;7.072;2024-03-25T00:07:01;22.80;;;4.60;;
33716;SDS011;20046;50.746;7.072;2024-03-25T00:09:27;24.73;;;5.18;;
33716;SDS011;20046;50.746;7.072;2024-03-25T00:11:52;23.27;;;4.55;;
33716;SDS011;20046;50.746;7.072;2024-03-25T00:14:21;20.27;;;4.95;;
33716;SDS011;20046;50.746;7.072;2024-03-25T00:16:47;24.15;;;5.15;;
33716;SDS011;20046;50.746;7.072;2024-03-25T00:19:13;23.77;;;5.10;;
33716;SDS011;20046;50.746;7.072;2024-03-25T00:21:39;16.35;;;4.20;;
33716;SDS011;20046;50.746;7.072;2024-03-25T00:24:04;18.35;;;3.90;;
33716;SDS011;20046;50.746;7.072;2024-03-25T00:26:30;17.63;;;4.00;;
33716;SDS011;20046;50.746;7.072;2024-03-25T00:28:56;24.77;;;4.75;;
33716;SDS011;20046;50.746;7.072;2024-03-25T00:31:22;18.55;;;4.13;;
33716;SDS011;20046;50.746;7.072;2024-03-25T00:33:47;22.60;;;5.55;;
33716;SDS011;20046;50.746;7.072;2024-03-25T00:36:13;20.67;;;4.60;;
33716;SDS011;20046;50.746;7.072;2024-03-25T00:38:39;24.90;;;5.60;;
33716;SDS011;20046;50.746;7.072;2024-03-25T00:41:04;26.67;;;4.55;;
33716;SDS011;20046;50.746;7.072;2024-03-25T00:43:30;56.95;;;20.13;;
33716;SDS011;20046;50.746;7.072;2024-03-25T00:45:55;22.55;;;5.80;;
33716;SDS011;20046;50.746;7.072;2024-03-25T00:48:21;24.02;;;4.72;;
33716;SDS011;20046;50.746;7.072;2024-03-25T00:50:48;17.35;;;4.55;;
33716;SDS011;20046;50.746;7.072;2024-03-25T00:53:13;20.17;;;4.75;;
33716;SDS011;20046;50.746;7.072;2024-03-25T00:55:39;21.65;;;5.63;;
33716;SDS011;20046;50.746;7.072;2024-03-25T00:58:05;24.50;;;4.60;;
33716;SDS011;20046;50.746;7.072;2024-03-25T01:00:31;17.80;;;4.80;;
33716;SDS011;20046;50.746;7.072;2024-03-25T01:02:56;23.58;;;5.60;;
33716;SDS011;20046;50.746;7.072;2024-03-25T01:05:22;22.13;;;5.35;;
33716;SDS011;20046;50.746;7.072;2024-03-25T01:07:48;20.58;;;7.00;;
33716;SDS011;20046;50.746;7.072;2024-03-25T01:10:14;25.55;;;5.70;;
33716;SDS011;20046;50.746;7.072;2024-03-25T01:12:41;22.35;;;4.38;;
33716;SDS011;20046;50.746;7.072;2024-03-25T01:15:07;29.98;;;5.97;;
33716;SDS011;20046;50.746;7.072;2024-03-25T01:17:35;16.17;;;4.57;;
33716;SDS011;20046;50.746;7.072;2024-03-25T01:20:01;23.88;;;5.32;;
33716;SDS011;20046;50.746;7.072;2024-03-25T01:22:27;31.98;;;5.85;;
33716;SDS011;20046;50.746;7.072;2024-03-25T01:24:52;21.65;;;5.70;;
33716;SDS011;20046;50.746;7.072;2024-03-25T01:27:19;24.73;;;5.47;;
33716;SDS011;20046;50.746;7.072;2024-03-25T01:29:44;20.77;;;5.25;;
33716;SDS011;20046;50.746;7.072;2024-03-25T01:32:10;27.10;;;4.82;;
33716;SDS011;20046;50.746;7.072;2024-03-25T01:34:38;28.48;;;6.05;;
33716;SDS011;20046;50.746;7.072;2024-03-25T01:37:05;25.35;;;5.25;;
33716;SDS011;20046;50.746;7.072;2024-03-25T01:39:30;33.67;;;5.55;;
33716;SDS011;20046;50.746;7.072;2024-03-25T01:41:56;21.55;;;5.15;;
33716;SDS011;20046;50.746;7.072;2024-03-25T01:44:21;23.77;;;4.88;;
33716;SDS011;20046;50.746;7.072;2024-03-25T01:46:47;29.70;;;5.70;;
33716;SDS011;20046;50.746;7.072;2024-03-25T01:49:13;23.83;;;5.72;;
33716;SDS011;20046;50.746;7.072;2024-03-25T01:51:39;29.73;;;4.80;;
33716;SDS011;20046;50.746;7.072;2024-03-25T01:54:05;19.48;;;4.40;;
33716;SDS011;20046;50.746;7.072;2024-03-25T01:56:33;36.45;;;4.93;;
33716;SDS011;20046;50.746;7.072;2024-03-25T01:59:00;22.55;;;4.93;;
33716;SDS011;20046;50.746;7.072;2024-03-25T02:01:26;19.27;;;3.92;;
33716;SDS011;20046;50.746;7.072;2024-03-25T02:03:54;19.52;;;4.95;;
33716;SDS011;20046;50.746;7.072;2024-03-25T02:06:21;23.73;;;4.63;;
33716;SDS011;20046;50.746;7.072;2024-03-25T02:08:47;23.45;;;4.43;;
33716;SDS011;20046;50.746;7.072;2024-03-25T02:11:14;27.40;;;4.10;;
33716;SDS011;20046;50.746;7.072;2024-03-25T02:13:40;16.40;;;4.00;;
33716;SDS011;20046;50.746;7.072;2024-03-25T02:16:06;26.80;;;5.18;;
33716;SDS011;20046;50.746;7.072;2024-03-25T02:18:32;30.17;;;5.45;;
33716;SDS011;20046;50.746;7.072;2024-03-25T02:20:58;22.92;;;5.25;;
33716;SDS011;20046;50.746;7.072;2024-03-25T02:23:24;26.60;;;4.95;;
33716;SDS011;20046;50.746;7.072;2024-03-25T02:25:51;23.58;;;4.45;;
33716;SDS011;20046;50.746;7.072;2024-03-25T02:28:17;22.70;;;4.60;;
33716;SDS011;20046;50.746;7.072;2024-03-25T02:30:43;28.58;;;4.78;;
33716;SDS011;20046;50.746;7.072;2024-03-25T02:33:08;27.40;;;4.95;;
33716;SDS011;20046;50.746;7.072;2024-03-25T02:35:34;32.15;;;4.93;;
33716;SDS011;20046;50.746;7.072;2024-03-25T02:38:01;27.38;;;4.55;;
33716;SDS011;20046;50.746;7.072;2024-03-25T02:40:28;16.08;;;4.53;;
33716;SDS011;20046;50.746;7.072;2024-03-25T02:43:14;26.20;;;4.93;;
33716;SDS011;20046;50.746;7.072;2024-03-25T02:45:40;15.13;;;3.72;;
33716;SDS011;20046;50.746;7.072;2024-03-25T02:48:05;27.02;;;4.72;;
33716;SDS011;20046;50.746;7.072;2024-03-25T02:50:31;27.75;;;4.97;;
33716;SDS011;20046;50.746;7.072;2024-03-25T02:52:56;21.40;;;4.90;;
33716;SDS011;20046;50.746;7.072;2024-03-25T02:55:22;28.92;;;4.75;;
33716;SDS011;20046;50.746;7.072;2024-03-25T02:57:48;24.38;;;4.35;;
33716;SDS011;20046;50.746;7.072;2024-03-25T03:00:13;23.77;;;3.85;;
33716;SDS011;20046;50.746;7.072;2024-03-25T03:02:39;25.98;;;4.93;;
33716;SDS011;20046;50.746;7.072;2024-03-25T03:05:05;21.80;;;3.65;;
33716;SDS011;20046;50.746;7.072;2024-03-25T03:07:30;27.02;;;4.30;;
33716;SDS011;20046;50.746;7.072;2024-03-25T03:09:56;62.00;;;18.95;;
33716;SDS011;20046;50.746;7.072;2024-03-25T03:12:21;34.47;;;9.85;;
33716;SDS011;20046;50.746;7.072;2024-03-25T03:14:47;33.97;;;5.32;;
33716;SDS011;20046;50.746;7.072;2024-03-25T03:17:13;20.75;;;4.25;;
33716;SDS011;20046;50.746;7.072;2024-03-25T03:19:39;35.38;;;4.60;;
33716;SDS011;20046;50.746;7.072;2024-03-25T03:22:04;25.92;;;4.60;;
33716;SDS011;20046;50.746;7.072;2024-03-25T03:24:30;25.05;;;5.13;;
33716;SDS011;20046;50.746;7.072;2024-03-25T03:26:56;26.10;;;4.10;;
33716;SDS011;20046;50.746;7.072;2024-03-25T03:29:21;20.98;;;4.25;;
33716;SDS011;20046;50.746;7.072;2024-03-25T03:31:47;22.52;;;4.97;;
33716;SDS011;20046;50.746;7.072;2024-03-25T03:34:12;26.60;;;4.80;;
33716;SDS011;20046;50.746;7.072;2024-03-25T03:36:38;27.30;;;4.60;;
33716;SDS011;20046;50.746;7.072;2024-03-25T03:39:05;25.17;;;4.78;;
33716;SDS011;20046;50.746;7.072;2024-03-25T03:41:33;28.52;;;4.72;;
33716;SDS011;20046;50.746;7.072;2024-03-25T03:43:59;25.00;;;4.70;;
33716;SDS011;20046;50.746;7.072;2024-03-25T03:46:24;31.00;;;3.88;;
33716;SDS011;20046;50.746;7.072;2024-03-25T03:48:50;28.20;;;4.72;;
33716;SDS011;20046;50.746;7.072;2024-03-25T03:51:16;29.02;;;4.60;;
33716;SDS011;20046;50.746;7.072;2024-03-25T03:53:41;21.75;;;4.65;;
33716;SDS011;20046;50.746;7.072;2024-03-25T03:56:07;23.10;;;4.05;;
33716;SDS011;20046;50.746;7.072;2024-03-25T03:58:33;25.45;;;4.90;;
33716;SDS011;20046;50.746;7.072;2024-03-25T04:00:59;24.05;;;5.30;;
33716;SDS011;20046;50.746;7.072;2024-03-25T04:03:25;26.58;;;4.75;;
33716;SDS011;20046;50.746;7.072;2024-03-25T04:05:51;26.88;;;4.57;;
33716;SDS011;20046;50.746;7.072;2024-03-25T04:08:17;24.58;;;4.80;;
33716;SDS011;20046;50.746;7.072;2024-03-25T04:10:43;27.25;;;4.00;;
33716;SDS011;20046;50.746;7.072;2024-03-25T04:13:10;25.25;;;4.43;;
33716;SDS011;20046;50.746;7.072;2024-03-25T04:15:39;30.02;;;5.70;;
33716;SDS011;20046;50.746;7.072;2024-03-25T04:18:06;26.55;;;4.47;;
33716;SDS011;20046;50.746;7.072;2024-03-25T04:20:38;19.73;;;4.50;;
33716;SDS011;20046;50.746;7.072;2024-03-25T04:23:04;29.80;;;5.37;;
33716;SDS011;20046;50.746;7.072;2024-03-25T04:25:32;28.52;;;5.40;;
33716;SDS011;20046;50.746;7.072;2024-03-25T04:27:58;18.60;;;5.13;;
33716;SDS011;20046;50.746;7.072;2024-03-25T04:30:25;20.25;;;4.78;;
33716;SDS011;20046;50.746;7.072;2024-03-25T04:32:51;31.52;;;5.93;;
33716;SDS011;20046;50.746;7.072;2024-03-25T04:35:17;19.73;;;4.38;;
33716;SDS011;20046;50.746;7.072;2024-03-25T04:37:42;28.50;;;5.20;;
33716;SDS011;20046;50.746;7.072;2024-03-25T04:40:08;31.85;;;5.10;;
33716;SDS011;20046;50.746;7.072;2024-03-25T04:42:35;33.35;;;5.47;;
33716;SDS011;20046;50.746;7.072;2024-03-25T04:45:01;33.78;;;5.45;;
33716;SDS011;20046;50.746;7.072;2024-03-25T04:47:27;25.17;;;5.10;;
33716;SDS011;20046;50.746;7.072;2024-03-25T04:49:52;29.60;;;5.38;;
33716;SDS011;20046;50.746;7.072;2024-03-25T04:52:18;26.67;;;5.38;;
33716;SDS011;20046;50.746;7.072;2024-03-25T04:54:43;26.50;;;5.53;;
33716;SDS011;20046;50.746;7.072;2024-03-25T04:57:09;25.05;;;5.18;;
33716;SDS011;20046;50.746;7.072;2024-03-25T04:59:35;18.90;;;4.13;;
33716;SDS011;20046;50.746;7.072;2024-03-25T05:02:01;25.73;;;5.45;;
33716;SDS011;20046;50.746;7.072;2024-03-25T05:04:26;21.02;;;5.65;;
33716;SDS011;20046;50.746;7.072;2024-03-25T05:06:52;18.73;;;4.70;;
33716;SDS011;20046;50.746;7.072;2024-03-25T05:09:17;22.33;;;5.43;;
33716;SDS011;20046;50.746;7.072;2024-03-25T05:11:43;18.13;;;4.55;;
33716;SDS011;20046;50.746;7.072;2024-03-25T05:14:09;21.20;;;4.57;;
33716;SDS011;20046;50.746;7.072;2024-03-25T05:16:35;28.23;;;5.50;;
33716;SDS011;20046;50.746;7.072;2024-03-25T05:19:01;27.08;;;6.30;;
33716;SDS011;20046;50.746;7.072;2024-03-25T05:21:29;20.75;;;4.45;;
33716;SDS011;20046;50.746;7.072;2024-03-25T05:23:55;23.48;;;5.30;;
33716;SDS011;20046;50.746;7.072;2024-03-25T05:26:21;26.00;;;5.75;;
33716;SDS011;20046;50.746;7.072;2024-03-25T05:28:51;28.30;;;5.75;;
33716;SDS011;20046;50.746;7.072;2024-03-25T05:33:46;21.35;;;4.65;;
33716;SDS011;20046;50.746;7.072;2024-03-25T05:36:12;21.25;;;5.20;;
33716;SDS011;20046;50.746;7.072;2024-03-25T05:38:38;24.08;;;4.80;;
33716;SDS011;20046;50.746;7.072;2024-03-25T05:41:04;23.95;;;5.20;;
33716;SDS011;20046;50.746;7.072;2024-03-25T05:43:30;20.92;;;5.35;;
33716;SDS011;20046;50.746;7.072;2024-03-25T05:45:56;21.75;;;5.13;;
33716;SDS011;20046;50.746;7.072;2024-03-25T05:48:24;23.00;;;5.47;;
33716;SDS011;20046;50.746;7.072;2024-03-25T05:50:57;18.50;;;4.75;;
33716;SDS011;20046;50.746;7.072;2024-03-25T05:53:23;20.95;;;5.30;;
33716;SDS011;20046;50.746;7.072;2024-03-25T05:55:48;26.33;;;5.32;;
33716;SDS011;20046;50.746;7.072;2024-03-25T05:58:14;27.52;;;6.32;;
33716;SDS011;20046;50.746;7.072;2024-03-25T06:00:40;24.50;;;5.93;;
33716;SDS011;20046;50.746;7.072;2024-03-25T06:03:06;22.40;;;6.15;;
33716;SDS011;20046;50.746;7.072;2024-03-25T06:05:32;22.92;;;6.28;;
33716;SDS011;20046;50.746;7.072;2024-03-25T06:07:57;26.02;;;5.43;;
33716;SDS011;20046;50.746;7.072;2024-03-25T06:10:23;20.33;;;4.88;;
33716;SDS011;20046;50.746;7.072;2024-03-25T06:12:48;23.55;;;4.82;;
33716;SDS011;20046;50.746;7.072;2024-03-25T06:15:14;30.45;;;6.35;;
33716;SDS011;20046;50.746;7.072;2024-03-25T06:17:40;22.92;;;5.63;;
33716;SDS011;20046;50.746;7.072;2024-03-25T06:20:05;19.10;;;4.70;;
33716;SDS011;20046;50.746;7.072;2024-03-25T06:22:31;22.17;;;5.70;;
33716;SDS011;20046;50.746;7.072;2024-03-25T06:24:57;23.90;;;4.78;;
33716;SDS011;20046;50.746;7.072;2024-03-25T06:27:22;21.98;;;4.35;;
33716;SDS011;20046;50.746;7.072;2024-03-25T06:29:48;22.35;;;4.82;;
33716;SDS011;20046;50.746;7.072;2024-03-25T06:32:34;21.65;;;4.07;;
33716;SDS011;20046;50.746;7.072;2024-03-25T06:37:43;24.52;;;4.40;;
33716;SDS011;20046;50.746;7.072;2024-03-25T06:40:09;21.55;;;5.05;;
33716;SDS011;20046;50.746;7.072;2024-03-25T06:42:35;14.20;;;3.88;;
33716;SDS011;20046;50.746;7.072;2024-03-25T06:45:01;21.02;;;4.75;;
33716;SDS011;20046;50.746;7.072;2024-03-25T06:47:27;13.10;;;3.38;;
33716;SDS011;20046;50.746;7.072;2024-03-25T06:49:53;14.50;;;3.55;;
33716;SDS011;20046;50.746;7.072;2024-03-25T06:52:18;11.00;;;3.55;;
33716;SDS011;20046;50.746;7.072;2024-03-25T06:54:44;17.15;;;4.07;;
33716;SDS011;20046;50.746;7.072;2024-03-25T06:57:09;12.13;;;3.00;;
33716;SDS011;20046;50.746;7.072;2024-03-25T06:59:35;19.55;;;3.70;;
33716;SDS011;20046;50.746;7.072;2024-03-25T07:02:02;15.25;;;3.92;;
33716;SDS011;20046;50.746;7.072;2024-03-25T07:04:28;14.05;;;3.10;;
33716;SDS011;20046;50.746;7.072;2024-03-25T07:06:53;17.77;;;3.85;;
33716;SDS011;20046;50.746;7.072;2024-03-25T07:09:19;10.85;;;3.22;;
33716;SDS011;20046;50.746;7.072;2024-03-25T07:11:45;9.82;;;2.70;;
33716;SDS011;20046;50.746;7.072;2024-03-25T07:14:11;14.45;;;3.63;;
33716;SDS011;20046;50.746;7.072;2024-03-25T07:16:37;12.50;;;3.28;;
33716;SDS011;20046;50.746;7.072;2024-03-25T07:19:03;15.77;;;3.38;;
33716;SDS011;20046;50.746;7.072;2024-03-25T07:21:28;15.52;;;3.25;;
33716;SDS011;20046;50.746;7.072;2024-03-25T07:23:54;18.00;;;3.15;;
33716;SDS011;20046;50.746;7.072;2024-03-25T07:26:19;10.40;;;2.80;;
33716;SDS011;20046;50.746;7.072;2024-03-25T07:28:45;12.65;;;3.75;;
33716;SDS011;20046;50.746;7.072;2024-03-25T07:31:10;13.68;;;3.50;;
33716;SDS011;20046;50.746;7.072;2024-03-25T07:33:36;12.02;;;3.10;;
33716;SDS011;20046;50.746;7.072;2024-03-25T07:36:02;15.75;;;3.20;;
33716;SDS011;20046;50.746;7.072;2024-03-25T07:38:27;12.48;;;3.03;;
33716;SDS011;20046;50.746;7.072;2024-03-25T07:40:53;11.93;;;3.70;;
33716;SDS011;20046;50.746;7.072;2024-03-25T07:43:18;11.07;;;2.75;;
33716;SDS011;20046;50.746;7.072;2024-03-25T07:45:44;11.25;;;3.20;;
33716;SDS011;20046;50.746;7.072;2024-03-25T07:48:09;12.13;;;3.30;;
33716;SDS011;20046;50.746;7.072;2024-03-25T07:50:35;14.75;;;3.28;;
33716;SDS011;20046;50.746;7.072;2024-03-25T07:53:01;15.40;;;3.22;;
33716;SDS011;20046;50.746;7.072;2024-03-25T07:55:27;12.57;;;3.25;;
33716;SDS011;20046;50.746;7.072;2024-03-25T07:57:52;10.20;;;3.33;;
33716;SDS011;20046;50.746;7.072;2024-03-25T08:00:18;16.15;;;3.80;;
33716;SDS011;20046;50.746;7.072;2024-03-25T08:02:43;11.55;;;2.80;;
33716;SDS011;20046;50.746;7.072;2024-03-25T08:05:09;9.93;;;2.95;;
33716;SDS011;20046;50.746;7.072;2024-03-25T08:07:34;12.68;;;3.33;;
33716;SDS011;20046;50.746;7.072;2024-03-25T08:10:00;8.80;;;2.80;;
33716;SDS011;20046;50.746;7.072;2024-03-25T08:12:26;9.90;;;2.70;;
33716;SDS011;20046;50.746;7.072;2024-03-25T08:14:51;11.25;;;2.85;;
33716;SDS011;20046;50.746;7.072;2024-03-25T08:17:17;9.52;;;2.38;;
33716;SDS011;20046;50.746;7.072;2024-03-25T08:19:42;15.55;;;2.70;;
33716;SDS011;20046;50.746;7.072;2024-03-25T08:22:08;17.67;;;2.60;;
33716;SDS011;20046;50.746;7.072;2024-03-25T08:24:33;13.77;;;2.83;;
33716;SDS011;20046;50.746;7.072;2024-03-25T08:26:59;14.65;;;2.75;;
33716;SDS011;20046;50.746;7.072;2024-03-25T08:29:24;19.35;;;3.85;;
33716;SDS011;20046;50.746;7.072;2024-03-25T08:31:50;15.65;;;2.60;;
33716;SDS011;20046;50.746;7.072;2024-03-25T08:34:16;14.20;;;3.33;;
33716;SDS011;20046;50.746;7.072;2024-03-25T08:36:41;9.70;;;2.75;;
33716;SDS011;20046;50.746;7.072;2024-03-25T08:39:07;18.10;;;3.22;;
33716;SDS011;20046;50.746;7.072;2024-03-25T08:41:32;15.02;;;3.10;;
33716;SDS011;20046;50.746;7.072;2024-03-25T08:43:58;17.27;;;3.00;;
33716;SDS011;20046;50.746;7.072;2024-03-25T08:46:24;12.93;;;3.10;;
33716;SDS011;20046;50.746;7.072;2024-03-25T08:48:49;15.88;;;3.10;;
33716;SDS011;20046;50.746;7.072;2024-03-25T08:51:15;11.70;;;2.65;;
33716;SDS011;20046;50.746;7.072;2024-03-25T08:53:40;15.13;;;3.53;;
33716;SDS011;20046;50.746;7.072;2024-03-25T08:56:06;14.20;;;3.17;;
33716;SDS011;20046;50.746;7.072;2024-03-25T08:58:31;14.38;;;3.42;;
33716;SDS011;20046;50.746;7.072;2024-03-25T09:00:57;12.68;;;2.88;;
33716;SDS011;20046;50.746;7.072;2024-03-25T09:03:23;15.05;;;3.20;;
33716;SDS011;20046;50.746;7.072;2024-03-25T09:05:48;10.90;;;2.67;;
33716;SDS011;20046;50.746;7.072;2024-03-25T09:08:14;18.98;;;3.00;;
33716;SDS011;20046;50.746;7.072;2024-03-25T09:10:43;14.38;;;2.88;;
33716;SDS011;20046;50.746;7.072;2024-03-25T09:13:27;14.88;;;3.92;;
33716;SDS011;20046;50.746;7.072;2024-03-25T09:15:53;11.98;;;3.00;;
33716;SDS011;20046;50.746;7.072;2024-03-25T09:18:18;16.30;;;3.28;;
33716;SDS011;20046;50.746;7.072;2024-03-25T09:20:44;14.63;;;2.95;;
33716;SDS011;20046;50.746;7.072;2024-03-25T09:23:10;13.60;;;3.05;;
33716;SDS011;20046;50.746;7.072;2024-03-25T09:25:35;17.90;;;3.35;;
33716;SDS011;20046;50.746;7.072;2024-03-25T09:28:01;12.60;;;2.60;;
33716;SDS011;20046;50.746;7.072;2024-03-25T09:30:27;10.38;;;3.08;;
33716;SDS011;20046;50.746;7.072;2024-03-25T09:32:53;10.02;;;3.30;;
33716;SDS011;20046;50.746;7.072;2024-03-25T09:35:19;13.82;;;3.45;;
33716;SDS011;20046;50.746;7.072;2024-03-25T09:37:45;13.25;;;3.15;;
33716;SDS011;20046;50.746;7.072;2024-03-25T09:40:11;16.02;;;3.42;;
33716;SDS011;20046;50.746;7.072;2024-03-25T09:45:16;11.50;;;3.10;;
33716;SDS011;20046;50.746;7.072;2024-03-25T09:47:46;11.43;;;3.08;;
33716;SDS011;20046;50.746;7.072;2024-03-25T09:50:13;15.15;;;3.38;;
33716;SDS011;20046;50.746;7.072;2024-03-25T09:52:44;13.15;;;3.00;;
33716;SDS011;20046;50.746;7.072;2024-03-25T09:55:13;13.45;;;2.60;;
33716;SDS011;20046;50.746;7.072;2024-03-25T09:57:39;9.00;;;2.60;;
33716;SDS011;20046;50.746;7.072;2024-03-25T10:00:07;8.15;;;2.38;;
33716;SDS011;20046;50.746;7.072;2024-03-25T10:02:34;10.15;;;2.88;;
33716;SDS011;20046;50.746;7.072;2024-03-25T10:05:02;8.27;;;2.35;;
33716;SDS011;20046;50.746;7.072;2024-03-25T10:07:28;9.38;;;2.08;;
33716;SDS011;20046;50.746;7.072;2024-03-25T10:09:54;9.57;;;2.60;;
33716;SDS011;20046;50.746;7.072;2024-03-25T10:12:21;13.48;;;2.58;;
33716;SDS011;20046;50.746;7.072;2024-03-25T10:14:46;16.65;;;2.38;;
33716;SDS011;20046;50.746;7.072;2024-03-25T10:17:13;9.77;;;3.00;;
33716;SDS011;20046;50.746;7.072;2024-03-25T10:19:38;14.38;;;2.67;;
33716;SDS011;20046;50.746;7.072;2024-03-25T10:22:04;7.88;;;2.05;;
33716;SDS011;20046;50.746;7.072;2024-03-25T10:24:38;12.80;;;2.30;;
33716;SDS011;20046;50.746;7.072;2024-03-25T10:27:04;9.63;;;2.65;;
33716;SDS011;20046;50.746;7.072;2024-03-25T10:29:30;10.70;;;2.65;;
33716;SDS011;20046;50.746;7.072;2024-03-25T10:32:01;11.30;;;2.30;;
33716;SDS011;20046;50.746;7.072;2024-03-25T10:34:29;12.63;;;2.60;;
33716;SDS011;20046;50.746;7.072;2024-03-25T10:36:56;13.18;;;2.55;;
33716;SDS011;20046;50.746;7.072;2024-03-25T10:39:26;10.63;;;2.13;;
33716;SDS011;20046;50.746;7.072;2024-03-25T10:41:56;8.60;;;2.17;;
33716;SDS011;20046;50.746;7.072;2024-03-25T10:44:25;9.63;;;2.42;;
33716;SDS011;20046;50.746;7.072;2024-03-25T10:46:59;10.88;;;2.38;;
33716;SDS011;20046;50.746;7.072;2024-03-25T10:49:32;11.80;;;2.85;;
33716;SDS011;20046;50.746;7.072;2024-03-25T10:52:09;12.60;;;2.65;;
33716;SDS011;20046;50.746;7.072;2024-03-25T10:54:37;9.43;;;2.10;;
33716;SDS011;20046;50.746;7.072;2024-03-25T10:57:04;12.75;;;2.92;;
33716;SDS011;20046;50.746;7.072;2024-03-25T10:59:32;12.98;;;2.40;;
33716;SDS011;20046;50.746;7.072;2024-03-25T11:02:02;14.77;;;2.35;;
33716;SDS011;20046;50.746;7.072;2024-03-25T11:04:28;13.05;;;2.80;;
33716;SDS011;20046;50.746;7.072;2024-03-25T11:07:05;10.25;;;2.38;;
33716;SDS011;20046;50.746;7.072;2024-03-25T11:09:38;8.50;;;2.28;;
33716;SDS011;20046;50.746;7.072;2024-03-25T11:12:04;12.02;;;2.38;;
33716;SDS011;20046;50.746;7.072;2024-03-25T11:14:31;7.00;;;1.95;;
33716;SDS011;20046;50.746;7.072;2024-03-25T11:16:58;12.18;;;2.50;;
33716;SDS011;20046;50.746;7.072;2024-03-25T11:19:28;11.15;;;2.40;;
33716;SDS011;20046;50.746;7.072;2024-03-25T11:21:55;9.65;;;2.90;;
33716;SDS011;20046;50.746;7.072;2024-03-25T11:24:35;9.73;;;2.42;;
33716;SDS011;20046;50.746;7.072;2024-03-25T11:27:07;7.07;;;2.15;;
33716;SDS011;20046;50.746;7.072;2024-03-25T11:29:34;8.43;;;2.28;;
33716;SDS011;20046;50.746;7.072;2024-03-25T11:32:02;12.60;;;2.92;;
33716;SDS011;20046;50.746;7.072;2024-03-25T11:34:29;9.75;;;2.58;;
33716;SDS011;20046;50.746;7.072;2024-03-25T11:36:55;9.10;;;2.10;;
33716;SDS011;20046;50.746;7.072;2024-03-25T11:39:22;12.13;;;2.60;;
33716;SDS011;20046;50.746;7.072;2024-03-25T11:41:48;7.68;;;2.22;;
33716;SDS011;20046;50.746;7.072;2024-03-25T11:44:14;8.23;;;2.05;;
33716;SDS011;20046;50.746;7.072;2024-03-25T11:46:42;7.97;;;2.20;;
33716;SDS011;20046;50.746;7.072;2024-03-25T11:49:14;6.70;;;2.45;;
33716;SDS011;20046;50.746;7.072;2024-03-25T11:51:44;8.15;;;2.05;;
33716;SDS011;20046;50.746;7.072;2024-03-25T11:54:11;9.18;;;2.25;;
33716;SDS011;20046;50.746;7.072;2024-03-25T11:56:44;7.88;;;2.15;;
33716;SDS011;20046;50.746;7.072;2024-03-25T11:59:10;9.95;;;2.38;;
33716;SDS011;20046;50.746;7.072;2024-03-25T12:01:37;7.45;;;2.40;;
33716;SDS011;20046;50.746;7.072;2024-03-25T12:04:09;9.48;;;2.28;;
33716;SDS011;20046;50.746;7.072;2024-03-25T12:06:36;6.43;;;2.00;;
33716;SDS011;20046;50.746;7.072;2024-03-25T12:09:01;6.40;;;1.90;;
33716;SDS011;20046;50.746;7.072;2024-03-25T12:11:45;6.80;;;2.00;;
33716;SDS011;20046;50.746;7.072;2024-03-25T12:14:11;7.60;;;2.33;;
33716;SDS011;20046;50.746;7.072;2024-03-25T12:16:37;6.97;;;1.65;;
33716;SDS011;20046;50.746;7.072;2024-03-25T12:19:03;8.82;;;2.25;;
33716;SDS011;20046;50.746;7.072;2024-03-25T12:21:28;7.18;;;1.80;;
33716;SDS011;20046;50.746;7.072;2024-03-25T12:23:56;6.97;;;2.15;;
33716;SDS011;20046;50.746;7.072;2024-03-25T12:26:23;6.03;;;1.85;;
33716;SDS011;20046;50.746;7.072;2024-03-25T12:28:49;7.22;;;1.95;;
33716;SDS011;20046;50.746;7.072;2024-03-25T12:31:14;7.15;;;1.80;;
33716;SDS011;20046;50.746;7.072;2024-03-25T12:33:41;7.70;;;2.03;;
33716;SDS011;20046;50.746;7.072;2024-03-25T12:36:08;7.10;;;2.00;;
33716;SDS011;20046;50.746;7.072;2024-03-25T12:38:36;5.93;;;1.88;;
33716;SDS011;20046;50.746;7.072;2024-03-25T12:41:05;7.47;;;2.03;;
33716;SDS011;20046;50.746;7.072;2024-03-25T12:46:01;4.68;;;1.65;;
33716;SDS011;20046;50.746;7.072;2024-03-25T12:48:30;7.60;;;2.13;;
33716;SDS011;20046;50.746;7.072;2024-03-25T12:50:56;6.88;;;2.22;;
33716;SDS011;20046;50.746;7.072;2024-03-25T12:53:22;6.90;;;1.80;;
33716;SDS011;20046;50.746;7.072;2024-03-25T12:55:47;5.18;;;1.60;;
33716;SDS011;20046;50.746;7.072;2024-03-25T12:58:13;5.63;;;1.50;;
33716;SDS011;20046;50.746;7.072;2024-03-25T13:00:39;7.90;;;2.30;;
33716;SDS011;20046;50.746;7.072;2024-03-25T13:03:06;6.38;;;1.75;;
33716;SDS011;20046;50.746;7.072;2024-03-25T13:05:33;6.13;;;1.80;;
33716;SDS011;20046;50.746;7.072;2024-03-25T13:07:59;7.20;;;1.95;;
33716;SDS011;20046;50.746;7.072;2024-03-25T13:10:25;9.57;;;2.10;;
33716;SDS011;20046;50.746;7.072;2024-03-25T13:12:51;8.32;;;2.25;;
33716;SDS011;20046;50.746;7.072;2024-03-25T13:15:16;5.85;;;2.17;;
33716;SDS011;20046;50.746;7.072;2024-03-25T13:17:42;8.55;;;2.65;;
33716;SDS011;20046;50.746;7.072;2024-03-25T13:20:08;7.43;;;2.10;;
33716;SDS011;20046;50.746;7.072;2024-03-25T13:22:34;8.70;;;2.30;;
33716;SDS011;20046;50.746;7.072;2024-03-25T13:25:00;6.70;;;2.22;;
33716;SDS011;20046;50.746;7.072;2024-03-25T13:27:26;6.38;;;2.15;;
33716;SDS011;20046;50.746;7.072;2024-03-25T13:29:51;11.32;;;2.50;;
33716;SDS011;20046;50.746;7.072;2024-03-25T13:32:18;4.35;;;1.77;;
33716;SDS011;20046;50.746;7.072;2024-03-25T13:34:44;6.60;;;1.60;;
33716;SDS011;20046;50.746;7.072;2024-03-25T13:37:10;8.38;;;1.25;;
33716;SDS011;20046;50.746;7.072;2024-03-25T13:39:36;8.90;;;1.92;;
33716;SDS011;20046;50.746;7.072;2024-03-25T13:42:02;7.63;;;2.15;;
33716;SDS011;20046;50.746;7.072;2024-03-25T13:44:27;4.75;;;1.77;;
33716;SDS011;20046;50.746;7.072;2024-03-25T13:46:53;6.55;;;2.15;;
33716;SDS011;20046;50.746;7.072;2024-03-25T13:49:19;6.47;;;1.80;;
33716;SDS011;20046;50.746;7.072;2024-03-25T13:51:45;5.53;;;1.83;;
33716;SDS011;20046;50.746;7.072;2024-03-25T13:54:11;7.90;;;1.85;;
33716;SDS011;20046;50.746;7.072;2024-03-25T13:56:36;6.22;;;1.48;;
33716;SDS011;20046;50.746;7.072;2024-03-25T13:59:02;6.47;;;2.15;;
33716;SDS011;20046;50.746;7.072;2024-03-25T14:01:28;9.13;;;2.50;;
33716;SDS011;20046;50.746;7.072;2024-03-25T14:03:53;8.38;;;1.80;;
33716;SDS011;20046;50.746;7.072;2024-03-25T14:06:19;4.45;;;1.80;;
33716;SDS011;20046;50.746;7.072;2024-03-25T14:08:45;5.68;;;2.10;;
33716;SDS011;20046;50.746;7.072;2024-03-25T14:11:10;9.30;;;1.95;;
33716;SDS011;20046;50.746;7.072;2024-03-25T14:13:36;7.78;;;2.20;;
33716;SDS011;20046;50.746;7.072;2024-03-25T14:16:02;6.07;;;1.90;;
33716;SDS011;20046;50.746;7.072;2024-03-25T14:18:27;7.82;;;1.83;;
33716;SDS011;20046;50.746;7.072;2024-03-25T14:20:53;4.38;;;1.70;;
33716;SDS011;20046;50.746;7.072;2024-03-25T14:23:19;6.53;;;1.63;;
33716;SDS011;20046;50.746;7.072;2024-03-25T14:25:44;7.32;;;2.05;;
33716;SDS011;20046;50.746;7.072;2024-03-25T14:28:10;4.40;;;1.50;;
33716;SDS011;20046;50.746;7.072;2024-03-25T14:30:35;5.43;;;2.08;;
33716;SDS011;20046;50.746;7.072;2024-03-25T14:33:01;4.15;;;1.90;;
33716;SDS011;20046;50.746;7.072;2024-03-25T14:35:27;5.72;;;1.90;;
33716;SDS011;20046;50.746;7.072;2024-03-25T14:37:52;4.72;;;2.38;;
33716;SDS011;20046;50.746;7.072;2024-03-25T14:40:18;4.68;;;2.05;;
33716;SDS011;20046;50.746;7.072;2024-03-25T14:42:44;8.05;;;2.10;;
33716;SDS011;20046;50.746;7.072;2024-03-25T14:45:09;5.53;;;1.60;;